createdAt,value
2019-05-07T00:01:23.267Z,30.00
2019-05-07T00:03:53.002Z,30.60
2019-05-07T00:06:23.311Z,24.60
2019-05-07T00:08:53.081Z,29.40
2019-05-07T00:11:22.961Z,27.20
2019-05-07T00:13:52.862Z,28.60
2019-05-07T00:16:22.642Z,28.60
2019-05-07T00:18:52.664Z,27.80
2019-05-07T00:21:23.365Z,23.60
2019-05-07T00:23:53.491Z,22.00
2019-05-07T00:26:23.336Z,20.20
2019-05-07T00:28:53.286Z,22.60
2019-05-07T00:31:23.468Z,19.60
2019-05-07T00:33:53.239Z,16.80
2019-05-07T00:36:42.115Z,26.40
2019-05-07T00:39:23.765Z,21.80
2019-05-07T00:42:12.702Z,25.00
2019-05-07T00:45:14.249Z,21.60
2019-05-07T00:47:32.983Z,22.00
2019-05-07T00:50:07.743Z,20.20
2019-05-07T00:52:38.065Z,21.60
2019-05-07T00:55:08.116Z,20.60
2019-05-07T00:57:39.078Z,19.40
2019-05-07T01:00:09.250Z,21.20
2019-05-07T01:02:38.972Z,23.60
2019-05-07T01:05:08.744Z,22.80
2019-05-07T01:07:38.425Z,31.20
2019-05-07T01:10:08.149Z,26.20
2019-05-07T01:12:38.264Z,23.20
2019-05-07T01:15:08.324Z,15.80
2019-05-07T01:17:38.342Z,16.20
2019-05-07T01:20:12.563Z,25.80
2019-05-07T01:22:42.621Z,24.00
2019-05-07T01:25:12.964Z,14.40
2019-05-07T01:27:42.837Z,26.40
2019-05-07T01:30:13.026Z,18.60
2019-05-07T01:32:54.701Z,16.00
2019-05-07T01:35:42.407Z,18.60
2019-05-07T01:38:12.690Z,22.20
2019-05-07T01:40:43.052Z,23.00
2019-05-07T01:43:12.999Z,21.00
2019-05-07T01:45:49.469Z,17.80
2019-05-07T01:48:17.598Z,22.60
2019-05-07T01:50:47.351Z,17.40
2019-05-07T01:53:17.762Z,23.80
2019-05-07T01:55:47.535Z,13.20
2019-05-07T01:58:17.256Z,10.60
2019-05-07T02:00:46.964Z,20.20
2019-05-07T02:03:32.880Z,20.80
2019-05-07T02:06:13.254Z,21.40
2019-05-07T02:09:02.406Z,18.60
2019-05-07T02:11:37.793Z,16.40
2019-05-07T02:14:07.502Z,22.40
2019-05-07T02:16:39.033Z,19.40
2019-05-07T02:19:08.997Z,21.80
2019-05-07T02:21:42.161Z,23.40
2019-05-07T02:24:12.620Z,21.40
2019-05-07T02:26:43.058Z,18.20
2019-05-07T02:29:12.705Z,21.40
2019-05-07T02:31:44.071Z,18.80
2019-05-07T02:34:14.283Z,25.60
2019-05-07T02:36:44.572Z,20.60
2019-05-07T02:39:27.989Z,22.40
2019-05-07T02:41:57.854Z,22.80
2019-05-07T02:44:27.452Z,20.20
2019-05-07T02:47:04.004Z,24.40
2019-05-07T02:49:43.592Z,21.40
2019-05-07T02:52:26.810Z,19.00
2019-05-07T02:55:05.078Z,22.80
2019-05-07T02:57:35.056Z,21.80
2019-05-07T03:00:05.736Z,20.40
2019-05-07T03:02:35.311Z,24.20
2019-05-07T03:05:05.596Z,23.20
2019-05-07T03:07:36.355Z,22.60
2019-05-07T03:10:05.961Z,22.40
2019-05-07T03:12:37.314Z,22.40
2019-05-07T03:15:07.630Z,18.60
2019-05-07T03:17:37.231Z,21.80
2019-05-07T03:20:10.138Z,18.40
2019-05-07T03:22:42.907Z,26.20
2019-05-07T03:25:19.195Z,24.00
2019-05-07T03:27:48.737Z,22.80
2019-05-07T03:30:26.595Z,23.00
2019-05-07T03:33:07.296Z,25.80
2019-05-07T03:35:46.678Z,30.00
2019-05-07T03:38:16.477Z,23.20
2019-05-07T03:40:48.140Z,23.60
2019-05-07T03:43:18.771Z,27.20
2019-05-07T03:46:03.737Z,27.00
2019-05-07T03:48:36.279Z,22.20
2019-05-07T03:51:06.019Z,20.00
2019-05-07T03:53:35.620Z,23.60
2019-05-07T03:56:12.976Z,22.40
2019-05-07T03:58:43.203Z,22.40
2019-05-07T04:01:16.125Z,22.00
2019-05-07T04:03:47.672Z,22.20
2019-05-07T04:06:17.282Z,30.00
2019-05-07T04:08:48.435Z,24.40
2019-05-07T04:11:18.266Z,19.40
2019-05-07T04:13:47.828Z,28.40
2019-05-07T04:16:17.546Z,22.80
2019-05-07T04:18:47.262Z,19.20
2019-05-07T04:21:16.767Z,27.80
2019-05-07T04:23:46.686Z,22.20
2019-05-07T04:26:33.867Z,24.00
2019-05-07T04:29:07.619Z,21.40
2019-05-07T04:31:43.453Z,23.20
2019-05-07T04:34:19.731Z,24.00
2019-05-07T04:36:53.231Z,26.40
2019-05-07T04:39:23.713Z,22.80
2019-05-07T04:41:53.469Z,28.40
2019-05-07T04:44:23.777Z,33.00
2019-05-07T04:46:53.601Z,24.60
2019-05-07T04:49:24.060Z,27.00
2019-05-07T04:52:03.686Z,29.20
2019-05-07T04:54:33.574Z,20.20
2019-05-07T04:57:03.992Z,25.00
2019-05-07T04:59:34.035Z,27.60
2019-05-07T05:02:14.653Z,31.40
2019-05-07T05:04:49.322Z,31.00
2019-05-07T05:07:19.171Z,29.20
2019-05-07T05:09:49.106Z,27.00
2019-05-07T05:12:22.458Z,28.80
2019-05-07T05:14:52.554Z,24.00
2019-05-07T05:17:22.744Z,25.40
2019-05-07T05:19:52.600Z,26.80
2019-05-07T05:22:47.349Z,24.00
2019-05-07T05:25:26.029Z,32.00
2019-05-07T05:27:55.659Z,28.60
2019-05-07T05:30:32.811Z,26.60
2019-05-07T05:33:04.437Z,31.80
2019-05-07T05:35:38.355Z,28.00
2019-05-07T05:38:22.139Z,30.20
2019-05-07T05:40:55.489Z,27.20
2019-05-07T05:43:44.995Z,26.20
2019-05-07T05:46:14.858Z,29.60
2019-05-07T05:48:45.348Z,52.00
2019-05-07T05:51:26.179Z,32.40
2019-05-07T05:54:27.372Z,27.40
2019-05-07T05:57:03.711Z,31.20
2019-05-07T05:59:52.103Z,26.40
2019-05-07T06:02:48.108Z,23.60
2019-05-07T06:05:35.165Z,25.60
2019-05-07T06:08:24.705Z,23.60
2019-05-07T06:11:16.121Z,18.20
2019-05-07T06:14:02.299Z,23.80
2019-05-07T06:16:36.754Z,20.20
2019-05-07T06:19:32.698Z,25.60
2019-05-07T06:22:16.786Z,21.80
2019-05-07T06:25:02.366Z,21.80
2019-05-07T06:27:32.567Z,16.80
2019-05-07T06:30:05.034Z,25.80
2019-05-07T06:32:36.742Z,24.80
2019-05-07T06:35:07.140Z,20.20
2019-05-07T06:37:37.611Z,20.60
2019-05-07T06:40:29.256Z,20.20
2019-05-07T06:43:22.364Z,19.60
2019-05-07T06:45:54.425Z,16.60
2019-05-07T06:48:38.058Z,20.40
2019-05-07T06:50:59.782Z,22.80
2019-05-07T06:53:33.781Z,16.40
2019-05-07T06:56:05.650Z,24.80
2019-05-07T06:58:43.786Z,18.20
2019-05-07T07:01:48.816Z,17.60
2019-05-07T07:04:27.757Z,13.80
2019-05-07T07:07:26.137Z,24.00
2019-05-07T07:09:54.913Z,27.00
2019-05-07T07:12:27.057Z,21.00
2019-05-07T07:14:58.149Z,20.60
2019-05-07T07:17:27.713Z,21.00
2019-05-07T07:19:57.163Z,17.40
2019-05-07T07:22:26.685Z,18.20
2019-05-07T07:24:57.079Z,20.20
2019-05-07T07:27:26.508Z,22.80
2019-05-07T07:30:02.403Z,22.00
2019-05-07T07:32:37.108Z,18.40
2019-05-07T07:35:09.070Z,16.40
2019-05-07T07:37:42.979Z,21.80
2019-05-07T07:40:18.193Z,19.00
2019-05-07T07:42:51.935Z,16.20
2019-05-07T07:45:23.060Z,17.20
2019-05-07T07:47:54.817Z,18.20
2019-05-07T07:50:24.290Z,20.40
2019-05-07T07:52:54.203Z,16.80
2019-05-07T07:55:33.038Z,18.80
2019-05-07T07:58:27.712Z,20.80
2019-05-07T08:01:14.270Z,17.60
2019-05-07T08:03:43.869Z,12.40
2019-05-07T08:06:13.451Z,13.40
2019-05-07T08:08:45.032Z,15.20
2019-05-07T08:11:15.467Z,12.60
2019-05-07T08:13:45.395Z,17.20
2019-05-07T08:16:14.987Z,10.40
2019-05-07T08:18:45.234Z,13.00
2019-05-07T08:21:14.761Z,13.60
2019-05-07T08:23:44.816Z,20.60
2019-05-07T08:26:14.476Z,18.60
2019-05-07T08:28:44.167Z,15.60
2019-05-07T08:31:31.916Z,6.20
2019-05-07T08:34:24.208Z,17.80
2019-05-07T08:36:55.712Z,18.20
2019-05-07T08:39:27.091Z,16.80
2019-05-07T08:42:02.274Z,18.20
2019-05-07T08:44:47.141Z,20.00
2019-05-07T08:47:42.520Z,14.40
2019-05-07T08:50:12.163Z,18.60
2019-05-07T08:52:41.998Z,16.00
2019-05-07T08:55:12.626Z,16.00
2019-05-07T08:57:42.205Z,21.80
2019-05-07T09:00:13.404Z,18.00
2019-05-07T09:02:43.318Z,15.80
2019-05-07T09:05:13.129Z,20.00
2019-05-07T09:07:42.705Z,13.80
2019-05-07T09:10:12.794Z,20.60
2019-05-07T09:12:42.872Z,19.60
2019-05-07T09:15:15.664Z,21.20
2019-05-07T09:17:49.761Z,24.60
2019-05-07T09:20:19.372Z,21.20
2019-05-07T09:22:49.123Z,21.60
2019-05-07T09:25:22.380Z,21.20
2019-05-07T09:27:53.713Z,19.80
2019-05-07T09:31:03.950Z,23.20
2019-05-07T09:33:42.146Z,19.00
2019-05-07T09:36:19.351Z,13.80
2019-05-07T09:38:56.741Z,19.40
2019-05-07T09:41:29.147Z,15.80
2019-05-07T09:43:59.195Z,19.80
2019-05-07T09:46:32.594Z,16.00
2019-05-07T09:49:02.920Z,20.60
2019-05-07T09:51:32.673Z,17.60
2019-05-07T09:54:07.224Z,22.80
2019-05-07T09:56:36.725Z,15.40
2019-05-07T09:59:06.401Z,21.40
2019-05-07T10:01:37.793Z,21.00
2019-05-07T10:04:07.261Z,25.00
2019-05-07T10:06:36.972Z,18.60
2019-05-07T10:09:09.300Z,18.80
2019-05-07T10:11:45.428Z,27.40
2019-05-07T10:14:15.135Z,21.40
2019-05-07T10:17:03.446Z,12.40
2019-05-07T10:19:34.421Z,18.00
2019-05-07T10:22:05.640Z,22.40
2019-05-07T10:24:42.101Z,21.40
2019-05-07T10:27:28.430Z,21.00
2019-05-07T10:29:58.729Z,24.40
2019-05-07T10:32:28.202Z,14.20
2019-05-07T10:34:57.711Z,26.20
2019-05-07T10:37:27.150Z,24.00
2019-05-07T10:39:56.567Z,14.80
2019-05-07T10:42:37.089Z,23.60
2019-05-07T10:45:17.895Z,21.00
2019-05-07T10:48:14.100Z,38.20
2019-05-07T10:50:45.065Z,21.80
2019-05-07T10:53:14.543Z,24.20
2019-05-07T10:55:45.678Z,25.20
2019-05-07T10:58:15.319Z,24.60
2019-05-07T11:00:45.636Z,22.20
2019-05-07T11:03:15.352Z,23.60
2019-05-07T11:05:44.956Z,19.00
2019-05-07T11:08:14.506Z,21.40
2019-05-07T11:10:47.141Z,16.00
2019-05-07T11:13:25.075Z,21.20
2019-05-07T11:16:02.404Z,16.40
2019-05-07T11:18:48.191Z,21.60
2019-05-07T11:21:33.242Z,21.60
2019-05-07T11:24:03.533Z,24.20
2019-05-07T11:26:33.134Z,26.60
2019-05-07T11:29:03.050Z,19.00
2019-05-07T11:31:34.391Z,24.80
2019-05-07T11:34:03.867Z,22.80
2019-05-07T11:36:35.687Z,19.80
2019-05-07T11:39:07.092Z,15.00
2019-05-07T11:42:05.033Z,18.60
2019-05-07T11:44:34.583Z,16.40
2019-05-07T11:47:25.602Z,18.60
2019-05-07T11:50:33.008Z,18.40
2019-05-07T11:53:05.622Z,18.60
2019-05-07T11:55:35.136Z,21.20
2019-05-07T11:58:04.732Z,24.60
2019-05-07T12:00:53.532Z,10.80
2019-05-07T12:03:26.439Z,19.40
2019-05-07T12:05:56.223Z,21.20
2019-05-07T12:08:37.559Z,20.60
2019-05-07T12:10:56.846Z,21.00
2019-05-07T12:13:26.387Z,22.00
2019-05-07T12:15:58.523Z,24.40
2019-05-07T12:18:28.354Z,20.40
2019-05-07T12:21:17.205Z,24.80
2019-05-07T12:23:42.188Z,23.60
2019-05-07T12:26:12.698Z,21.00
2019-05-07T12:28:45.272Z,25.40
2019-05-07T12:31:55.647Z,25.40
2019-05-07T12:34:31.959Z,26.40
2019-05-07T12:37:01.776Z,23.20
2019-05-07T12:39:31.830Z,22.80
2019-05-07T12:42:01.821Z,24.40
2019-05-07T12:44:32.127Z,26.60
2019-05-07T12:47:01.782Z,25.20
2019-05-07T12:49:32.511Z,20.00
2019-05-07T12:52:17.221Z,18.80
2019-05-07T12:54:53.826Z,25.20
2019-05-07T12:57:25.089Z,24.00
2019-05-07T12:59:54.762Z,15.20
2019-05-07T13:02:44.362Z,20.40
2019-05-07T13:05:13.661Z,14.00
2019-05-07T13:07:50.360Z,16.40
2019-05-07T13:10:22.145Z,19.00
2019-05-07T13:12:52.626Z,20.20
2019-05-07T13:15:32.631Z,18.40
2019-05-07T13:18:07.833Z,21.40
2019-05-07T13:20:37.708Z,21.00
2019-05-07T13:23:16.663Z,17.00
2019-05-07T13:25:49.127Z,20.60
2019-05-07T13:28:18.838Z,21.60
2019-05-07T13:30:48.527Z,19.80
2019-05-07T13:33:18.373Z,24.80
2019-05-07T13:35:48.761Z,19.60
2019-05-07T13:38:37.127Z,23.40
2019-05-07T13:41:40.391Z,19.20
2019-05-07T13:44:26.752Z,21.00
2019-05-07T13:47:15.269Z,27.80
2019-05-07T13:49:45.596Z,26.80
2019-05-07T13:52:15.250Z,15.80
2019-05-07T13:54:45.125Z,26.60
2019-05-07T13:57:16.382Z,24.80
2019-05-07T13:59:48.806Z,23.20
2019-05-07T14:02:18.775Z,24.80
2019-05-07T14:04:54.224Z,22.00
2019-05-07T14:07:25.085Z,24.40
2019-05-07T14:09:55.227Z,27.20
2019-05-07T14:12:25.728Z,27.80
2019-05-07T14:14:55.678Z,27.60
2019-05-07T14:17:25.414Z,25.80
2019-05-07T14:19:54.861Z,28.00
2019-05-07T14:22:27.286Z,17.60
2019-05-07T14:24:59.609Z,23.20
2019-05-07T14:27:32.164Z,24.60
2019-05-07T14:30:02.664Z,27.20
2019-05-07T14:32:41.913Z,28.40
2019-05-07T14:35:32.234Z,30.40
2019-05-07T14:38:06.461Z,30.60
2019-05-07T14:40:36.096Z,29.20
2019-05-07T14:43:14.147Z,30.20
2019-05-07T14:45:44.487Z,30.60
2019-05-07T14:48:13.940Z,27.00
2019-05-07T14:50:44.928Z,26.80
2019-05-07T14:53:14.983Z,30.60
2019-05-07T14:55:49.077Z,21.60
2019-05-07T14:58:19.983Z,25.80
2019-05-07T15:00:51.694Z,24.00
2019-05-07T15:03:22.701Z,27.40
2019-05-07T15:05:52.622Z,28.80
2019-05-07T15:08:22.347Z,25.40
2019-05-07T15:10:52.572Z,28.40
2019-05-07T15:13:22.108Z,21.60
2019-05-07T15:15:52.600Z,24.60
2019-05-07T15:18:48.746Z,22.80
2019-05-07T15:21:18.681Z,22.00
2019-05-07T15:23:48.513Z,30.20
2019-05-07T15:26:18.165Z,24.00
2019-05-07T15:28:52.147Z,21.00
2019-05-07T15:31:51.635Z,17.80
2019-05-07T15:34:22.176Z,22.40
2019-05-07T15:36:52.679Z,27.00
2019-05-07T15:39:23.015Z,22.80
2019-05-07T15:41:52.530Z,27.40
2019-05-07T15:44:23.093Z,24.80
2019-05-07T15:46:57.978Z,25.80
2019-05-07T15:49:32.179Z,24.40
2019-05-07T15:52:04.304Z,24.00
2019-05-07T15:54:33.786Z,23.20
2019-05-07T15:57:12.574Z,21.00
2019-05-07T15:59:45.491Z,23.20
2019-05-07T16:02:35.165Z,23.40
2019-05-07T16:05:05.269Z,24.00
2019-05-07T16:07:38.168Z,22.80
2019-05-07T16:10:12.079Z,27.00
2019-05-07T16:12:42.419Z,24.80
2019-05-07T16:15:14.370Z,24.40
2019-05-07T16:17:47.753Z,22.80
2019-05-07T16:20:17.472Z,27.00
2019-05-07T16:22:54.841Z,24.20
2019-05-07T16:25:22.500Z,27.60
2019-05-07T16:27:52.772Z,20.60
2019-05-07T16:30:25.127Z,21.80
2019-05-07T16:32:55.951Z,26.20
2019-05-07T16:35:29.102Z,24.40
2019-05-07T16:38:04.246Z,21.20
2019-05-07T16:40:35.574Z,20.60
2019-05-07T16:43:08.170Z,19.80
2019-05-07T16:45:38.239Z,25.40
2019-05-07T16:48:11.929Z,24.40
2019-05-07T16:50:41.727Z,22.40
2019-05-07T16:53:26.490Z,28.80
2019-05-07T16:55:48.545Z,21.60
2019-05-07T16:58:42.801Z,20.60
2019-05-07T17:01:17.344Z,24.00
2019-05-07T17:03:52.114Z,22.00
2019-05-07T17:06:22.439Z,21.00
2019-05-07T17:09:17.738Z,22.40
2019-05-07T17:11:47.766Z,22.80
2019-05-07T17:14:28.184Z,24.80
2019-05-07T17:16:59.530Z,22.80
2019-05-07T17:19:32.114Z,27.60
2019-05-07T17:22:02.869Z,27.40
2019-05-07T17:24:33.216Z,18.80
2019-05-07T17:27:02.758Z,22.00
2019-05-07T17:29:32.445Z,21.60
2019-05-07T17:32:04.862Z,19.60
2019-05-07T17:34:37.524Z,14.20
2019-05-07T17:37:07.221Z,19.40
2019-05-07T17:39:39.036Z,19.20
2019-05-07T17:42:09.025Z,16.00
2019-05-07T17:44:41.779Z,19.00
2019-05-07T17:47:26.178Z,16.60
2019-05-07T17:49:56.254Z,19.60
2019-05-07T17:52:26.172Z,21.20
2019-05-07T17:55:02.162Z,18.80
2019-05-07T17:57:33.465Z,20.80
2019-05-07T18:00:03.605Z,22.00
2019-05-07T18:02:48.557Z,15.40
2019-05-07T18:05:20.535Z,18.60
2019-05-07T18:07:52.654Z,12.40
2019-05-07T18:10:21.734Z,17.20
2019-05-07T18:12:54.110Z,20.80
2019-05-07T18:15:27.289Z,19.80
2019-05-07T18:18:12.828Z,20.80
2019-05-07T18:20:43.226Z,21.40
2019-05-07T18:23:17.085Z,18.60
2019-05-07T18:25:50.964Z,21.60
2019-05-07T18:28:21.620Z,19.00
2019-05-07T18:30:51.467Z,22.40
2019-05-07T18:33:41.847Z,20.80
2019-05-07T18:36:13.953Z,16.80
2019-05-07T18:38:45.276Z,17.20
2019-05-07T18:41:22.321Z,18.00
2019-05-07T18:44:12.098Z,18.40
2019-05-07T18:46:30.318Z,15.80
2019-05-07T18:48:59.850Z,18.80
2019-05-07T18:51:31.972Z,15.60
2019-05-07T18:54:02.425Z,18.20
2019-05-07T18:56:32.010Z,15.60
2019-05-07T18:59:02.169Z,20.00
2019-05-07T19:01:33.663Z,17.60
2019-05-07T19:04:04.260Z,17.00
2019-05-07T19:06:42.611Z,22.40
2019-05-07T19:09:12.242Z,16.00
2019-05-07T19:11:42.709Z,14.60
2019-05-07T19:14:14.321Z,13.00
2019-05-07T19:16:43.703Z,15.80
2019-05-07T19:19:13.562Z,13.00
2019-05-07T19:21:46.156Z,16.00
2019-05-07T19:24:19.226Z,15.80
2019-05-07T19:26:48.795Z,16.00
2019-05-07T19:29:18.189Z,13.00
2019-05-07T19:31:47.759Z,16.80
2019-05-07T19:34:21.811Z,15.40
2019-05-07T19:36:52.172Z,52.60
2019-05-07T19:39:24.187Z,26.40
2019-05-07T19:41:56.073Z,15.60
2019-05-07T19:44:25.695Z,17.20
2019-05-07T19:46:57.550Z,13.00
2019-05-07T19:49:32.300Z,16.40
2019-05-07T19:52:02.102Z,29.20
2019-05-07T19:54:32.588Z,18.00
2019-05-07T19:57:02.842Z,15.00
2019-05-07T19:59:32.747Z,15.40
2019-05-07T20:02:07.403Z,12.00
2019-05-07T20:04:37.314Z,17.20
2019-05-07T20:07:12.237Z,16.40
2019-05-07T20:09:40.372Z,12.40
2019-05-07T20:12:11.066Z,14.40
2019-05-07T20:14:42.236Z,9.80
2019-05-07T20:17:12.406Z,12.00
2019-05-07T20:19:43.066Z,15.60
2019-05-07T20:22:15.236Z,10.80
2019-05-07T20:24:47.817Z,14.20
2019-05-07T20:27:17.609Z,17.20
2019-05-07T20:29:47.661Z,7.00
2019-05-07T20:32:17.429Z,12.40
2019-05-07T20:34:47.256Z,9.40
2019-05-07T20:37:17.454Z,14.20
2019-05-07T20:39:47.401Z,12.60
2019-05-07T20:42:17.251Z,12.40
2019-05-07T20:44:49.142Z,10.80
2019-05-07T20:47:18.895Z,12.00
2019-05-07T20:49:48.751Z,12.00
2019-05-07T20:52:18.824Z,13.40
2019-05-07T20:55:06.623Z,10.80
2019-05-07T20:57:42.734Z,11.40
2019-05-07T21:00:15.139Z,12.20
2019-05-07T21:02:48.115Z,12.20
2019-05-07T21:05:16.487Z,13.60
2019-05-07T21:07:47.199Z,13.40
2019-05-07T21:10:19.236Z,20.20
2019-05-07T21:12:49.150Z,42.40
2019-05-07T21:15:18.785Z,52.40
2019-05-07T21:17:48.469Z,52.00
2019-05-07T21:20:20.118Z,46.60
2019-05-07T21:22:53.652Z,45.00
2019-05-07T21:25:27.125Z,28.80
2019-05-07T21:27:57.177Z,22.60
2019-05-07T21:30:28.778Z,20.20
2019-05-07T21:33:00.685Z,16.40
2019-05-07T21:35:31.978Z,15.60
2019-05-07T21:38:05.080Z,16.40
2019-05-07T21:40:34.964Z,18.20
2019-05-07T21:43:05.332Z,25.40
2019-05-07T21:45:35.143Z,20.60
2019-05-07T21:48:05.058Z,13.80
2019-05-07T21:50:36.367Z,16.80
2019-05-07T21:53:13.322Z,21.20
2019-05-07T21:56:05.491Z,19.80
2019-05-07T21:58:41.775Z,12.00
2019-05-07T22:01:36.454Z,12.40
2019-05-07T22:04:06.595Z,11.60
2019-05-07T22:06:36.157Z,11.20
2019-05-07T22:09:12.680Z,8.20
2019-05-07T22:11:42.612Z,10.80
2019-05-07T22:14:12.848Z,11.20
2019-05-07T22:16:43.199Z,12.40
2019-05-07T22:19:13.017Z,15.40
2019-05-07T22:21:45.432Z,15.00
2019-05-07T22:24:15.291Z,17.20
2019-05-07T22:26:45.114Z,15.60
2019-05-07T22:29:14.925Z,16.00
2019-05-07T22:32:02.598Z,18.60
2019-05-07T22:34:53.142Z,21.80
2019-05-07T22:37:22.963Z,20.20
2019-05-07T22:39:53.343Z,15.60
2019-05-07T22:42:23.266Z,13.40
2019-05-07T22:44:54.139Z,14.20
2019-05-07T22:47:25.327Z,11.00
2019-05-07T22:49:57.695Z,12.80
2019-05-07T22:52:27.907Z,15.60
2019-05-07T22:54:58.359Z,13.40
2019-05-07T22:57:45.199Z,20.40
2019-05-07T23:00:23.102Z,21.00
2019-05-07T23:02:53.925Z,15.80
2019-05-07T23:05:23.648Z,16.00
2019-05-07T23:07:55.106Z,15.60
2019-05-07T23:10:26.435Z,7.80
2019-05-07T23:12:58.215Z,21.60
2019-05-07T23:15:28.224Z,19.80
2019-05-07T23:17:59.589Z,15.60
2019-05-07T23:20:29.398Z,15.60
2019-05-07T23:23:00.731Z,19.00
2019-05-07T23:25:32.215Z,15.00
2019-05-07T23:28:04.950Z,17.40
2019-05-07T23:30:33.813Z,14.20
2019-05-07T23:33:08.159Z,10.20
2019-05-07T23:35:42.104Z,13.40
2019-05-07T23:38:12.248Z,17.00
2019-05-07T23:41:02.119Z,12.00
2019-05-07T23:43:32.220Z,9.80
2019-05-07T23:46:05.070Z,9.80
2019-05-07T23:48:36.379Z,8.40
2019-05-07T23:51:06.246Z,10.40
2019-05-07T23:53:35.825Z,10.00
2019-05-07T23:56:07.230Z,7.80
2019-05-07T23:58:36.879Z,10.80
